sensor_id;sensor_type;location;lat;lon;timestamp;temperature;humidity
10566;DHT22;5331;48.148;16.326;2023-11-19T00:08:09;2.40;1.00
10566;DHT22;5331;48.148;16.326;2023-11-19T00:10:35;2.50;1.00
10566;DHT22;5331;48.148;16.326;2023-11-19T00:13:01;2.50;1.00
10566;DHT22;5331;48.148;16.326;2023-11-19T00:15:28;2.50;1.00
10566;DHT22;5331;48.148;16.326;2023-11-19T00:17:54;2.50;1.00
10566;DHT22;5331;48.148;16.326;2023-11-19T00:20:21;2.50;1.00
10566;DHT22;5331;48.148;16.326;2023-11-19T00:22:48;2.50;1.00
10566;DHT22;5331;48.148;16.326;2023-11-19T00:43:03;2.60;1.00
10566;DHT22;5331;48.148;16.326;2023-11-19T00:45:29;2.60;1.00
10566;DHT22;5331;48.148;16.326;2023-11-19T00:47:55;2.60;1.00
10566;DHT22;5331;48.148;16.326;2023-11-19T00:50:22;2.60;1.00
10566;DHT22;5331;48.148;16.326;2023-11-19T00:52:48;2.50;1.00
10566;DHT22;5331;48.148;16.326;2023-11-19T00:55:14;2.50;1.00
10566;DHT22;5331;48.148;16.326;2023-11-19T00:57:40;2.50;1.00
10566;DHT22;5331;48.148;16.326;2023-11-19T01:17:46;2.50;1.00
10566;DHT22;5331;48.148;16.326;2023-11-19T01:20:12;2.60;1.00
10566;DHT22;5331;48.148;16.326;2023-11-19T01:22:39;2.60;1.00
10566;DHT22;5331;48.148;16.326;2023-11-19T01:25:06;2.50;1.00
10566;DHT22;5331;48.148;16.326;2023-11-19T01:27:32;2.50;1.00
10566;DHT22;5331;48.148;16.326;2023-11-19T01:30:00;2.50;1.00
10566;DHT22;5331;48.148;16.326;2023-11-19T01:32:27;2.60;1.00
10566;DHT22;5331;48.148;16.326;2023-11-19T01:52:41;2.80;1.00
10566;DHT22;5331;48.148;16.326;2023-11-19T01:55:08;2.80;1.00
10566;DHT22;5331;48.148;16.326;2023-11-19T01:57:35;2.90;1.00
10566;DHT22;5331;48.148;16.326;2023-11-19T02:00:03;2.90;1.00
10566;DHT22;5331;48.148;16.326;2023-11-19T02:02:30;2.80;1.00
10566;DHT22;5331;48.148;16.326;2023-11-19T02:04:56;2.80;1.00
10566;DHT22;5331;48.148;16.326;2023-11-19T02:07:24;2.80;1.00
10566;DHT22;5331;48.148;16.326;2023-11-19T02:22:59;3.10;1.00
10566;DHT22;5331;48.148;16.326;2023-11-19T02:25:30;3.10;1.00
10566;DHT22;5331;48.148;16.326;2023-11-19T02:27:59;3.10;1.00
10566;DHT22;5331;48.148;16.326;2023-11-19T02:30:26;3.20;1.00
10566;DHT22;5331;48.148;16.326;2023-11-19T02:32:54;3.30;1.00
10566;DHT22;5331;48.148;16.326;2023-11-19T02:35:22;3.40;1.00
10566;DHT22;5331;48.148;16.326;2023-11-19T02:37:49;3.60;1.00
10566;DHT22;5331;48.148;16.326;2023-11-19T02:54:26;3.60;1.00
10566;DHT22;5331;48.148;16.326;2023-11-19T02:56:52;3.60;1.00
10566;DHT22;5331;48.148;16.326;2023-11-19T02:59:25;3.40;1.00
10566;DHT22;5331;48.148;16.326;2023-11-19T03:04:20;3.40;1.00
10566;DHT22;5331;48.148;16.326;2023-11-19T03:06:48;3.20;1.00
10566;DHT22;5331;48.148;16.326;2023-11-19T03:09:14;3.20;1.00
10566;DHT22;5331;48.148;16.326;2023-11-19T03:29:04;3.10;1.00
10566;DHT22;5331;48.148;16.326;2023-11-19T03:31:30;3.00;1.00
10566;DHT22;5331;48.148;16.326;2023-11-19T03:33:56;3.00;1.00
10566;DHT22;5331;48.148;16.326;2023-11-19T03:36:22;2.90;1.00
10566;DHT22;5331;48.148;16.326;2023-11-19T03:38:48;2.90;1.00
10566;DHT22;5331;48.148;16.326;2023-11-19T03:41:15;2.90;1.00
10566;DHT22;5331;48.148;16.326;2023-11-19T03:43:42;2.90;1.00
10566;DHT22;5331;48.148;16.326;2023-11-19T04:01:43;3.00;1.00
10566;DHT22;5331;48.148;16.326;2023-11-19T04:04:09;3.00;1.00
10566;DHT22;5331;48.148;16.326;2023-11-19T04:06:35;3.00;1.00
10566;DHT22;5331;48.148;16.326;2023-11-19T04:09:01;3.00;1.00
10566;DHT22;5331;48.148;16.326;2023-11-19T04:11:27;3.00;1.00
10566;DHT22;5331;48.148;16.326;2023-11-19T04:13:54;2.90;1.00
10566;DHT22;5331;48.148;16.326;2023-11-19T04:16:26;3.00;1.00
10566;DHT22;5331;48.148;16.326;2023-11-19T04:34:21;3.00;1.00
10566;DHT22;5331;48.148;16.326;2023-11-19T04:36:47;3.00;1.00
10566;DHT22;5331;48.148;16.326;2023-11-19T04:39:13;2.90;1.00
10566;DHT22;5331;48.148;16.326;2023-11-19T04:41:47;2.90;1.00
10566;DHT22;5331;48.148;16.326;2023-11-19T04:44:13;2.90;1.00
10566;DHT22;5331;48.148;16.326;2023-11-19T04:46:41;2.90;1.00
10566;DHT22;5331;48.148;16.326;2023-11-19T04:49:08;2.90;1.00
10566;DHT22;5331;48.148;16.326;2023-11-19T05:04:46;3.00;1.00
10566;DHT22;5331;48.148;16.326;2023-11-19T05:07:12;3.00;1.00
10566;DHT22;5331;48.148;16.326;2023-11-19T05:09:38;3.00;1.00
10566;DHT22;5331;48.148;16.326;2023-11-19T05:12:05;3.00;1.00
10566;DHT22;5331;48.148;16.326;2023-11-19T05:14:34;3.00;1.00
10566;DHT22;5331;48.148;16.326;2023-11-19T05:17:00;3.00;1.00
10566;DHT22;5331;48.148;16.326;2023-11-19T05:19:26;2.90;1.00
10566;DHT22;5331;48.148;16.326;2023-11-19T05:35:07;3.00;1.00
10566;DHT22;5331;48.148;16.326;2023-11-19T05:37:34;3.00;1.00
10566;DHT22;5331;48.148;16.326;2023-11-19T05:40:00;2.90;1.00
10566;DHT22;5331;48.148;16.326;2023-11-19T05:42:28;2.90;1.00
10566;DHT22;5331;48.148;16.326;2023-11-19T05:44:54;2.90;1.00
10566;DHT22;5331;48.148;16.326;2023-11-19T05:47:21;3.00;1.00
10566;DHT22;5331;48.148;16.326;2023-11-19T05:49:47;3.00;1.00
10566;DHT22;5331;48.148;16.326;2023-11-19T06:06:03;2.90;1.00
10566;DHT22;5331;48.148;16.326;2023-11-19T06:08:30;2.90;1.00
10566;DHT22;5331;48.148;16.326;2023-11-19T06:10:57;2.90;1.00
10566;DHT22;5331;48.148;16.326;2023-11-19T06:13:23;2.90;1.00
10566;DHT22;5331;48.148;16.326;2023-11-19T06:15:51;2.90;1.00
10566;DHT22;5331;48.148;16.326;2023-11-19T06:18:17;2.90;1.00
10566;DHT22;5331;48.148;16.326;2023-11-19T06:20:45;2.90;1.00
10566;DHT22;5331;48.148;16.326;2023-11-19T06:38:43;3.00;1.00
10566;DHT22;5331;48.148;16.326;2023-11-19T06:41:10;3.10;1.00
10566;DHT22;5331;48.148;16.326;2023-11-19T06:43:37;3.00;1.00
10566;DHT22;5331;48.148;16.326;2023-11-19T06:46:03;3.10;1.00
10566;DHT22;5331;48.148;16.326;2023-11-19T06:48:31;3.00;1.00
10566;DHT22;5331;48.148;16.326;2023-11-19T06:50:58;3.00;1.00
10566;DHT22;5331;48.148;16.326;2023-11-19T06:53:24;3.00;1.00
10566;DHT22;5331;48.148;16.326;2023-11-19T07:11:19;3.20;1.00
10566;DHT22;5331;48.148;16.326;2023-11-19T07:13:46;3.20;1.00
10566;DHT22;5331;48.148;16.326;2023-11-19T07:16:14;3.30;1.00
10566;DHT22;5331;48.148;16.326;2023-11-19T07:18:40;3.30;1.00
10566;DHT22;5331;48.148;16.326;2023-11-19T07:21:07;3.30;1.00
10566;DHT22;5331;48.148;16.326;2023-11-19T07:23:35;3.30;1.00
10566;DHT22;5331;48.148;16.326;2023-11-19T07:26:05;3.30;1.00
10566;DHT22;5331;48.148;16.326;2023-11-19T07:46:27;3.60;1.00
10566;DHT22;5331;48.148;16.326;2023-11-19T07:48:53;3.50;1.00
10566;DHT22;5331;48.148;16.326;2023-11-19T07:51:19;3.40;1.00
10566;DHT22;5331;48.148;16.326;2023-11-19T07:53:45;3.30;1.00
10566;DHT22;5331;48.148;16.326;2023-11-19T07:56:12;3.30;1.00
10566;DHT22;5331;48.148;16.326;2023-11-19T07:58:38;3.30;1.00
10566;DHT22;5331;48.148;16.326;2023-11-19T08:01:05;3.30;1.00
10566;DHT22;5331;48.148;16.326;2023-11-19T08:19:00;3.90;1.00
10566;DHT22;5331;48.148;16.326;2023-11-19T08:23:54;3.90;1.00
10566;DHT22;5331;48.148;16.326;2023-11-19T08:31:13;3.90;1.00
10566;DHT22;5331;48.148;16.326;2023-11-19T08:33:39;3.90;1.00
10566;DHT22;5331;48.148;16.326;2023-11-19T08:49:09;4.50;1.00
10566;DHT22;5331;48.148;16.326;2023-11-19T08:51:35;4.60;1.00
10566;DHT22;5331;48.148;16.326;2023-11-19T08:54:01;4.60;1.00
10566;DHT22;5331;48.148;16.326;2023-11-19T08:56:28;4.60;1.00
10566;DHT22;5331;48.148;16.326;2023-11-19T08:58:58;4.60;1.00
10566;DHT22;5331;48.148;16.326;2023-11-19T09:01:24;4.50;1.00
10566;DHT22;5331;48.148;16.326;2023-11-19T09:03:50;4.40;1.00
10566;DHT22;5331;48.148;16.326;2023-11-19T09:20:06;4.60;1.00
10566;DHT22;5331;48.148;16.326;2023-11-19T09:22:33;4.60;1.00
10566;DHT22;5331;48.148;16.326;2023-11-19T09:24:59;4.60;1.00
10566;DHT22;5331;48.148;16.326;2023-11-19T09:27:26;4.70;1.00
10566;DHT22;5331;48.148;16.326;2023-11-19T09:29:52;4.80;1.00
10566;DHT22;5331;48.148;16.326;2023-11-19T09:32:22;4.90;1.00
10566;DHT22;5331;48.148;16.326;2023-11-19T09:34:49;4.90;1.00
10566;DHT22;5331;48.148;16.326;2023-11-19T09:52:44;5.30;1.00
10566;DHT22;5331;48.148;16.326;2023-11-19T09:55:11;5.30;1.00
10566;DHT22;5331;48.148;16.326;2023-11-19T09:57:38;5.30;1.00
10566;DHT22;5331;48.148;16.326;2023-11-19T10:00:06;5.20;1.00
10566;DHT22;5331;48.148;16.326;2023-11-19T10:02:34;5.10;1.00
10566;DHT22;5331;48.148;16.326;2023-11-19T10:05:04;5.20;1.00
10566;DHT22;5331;48.148;16.326;2023-11-19T10:07:32;5.20;1.00
10566;DHT22;5331;48.148;16.326;2023-11-19T10:25:28;5.40;1.00
10566;DHT22;5331;48.148;16.326;2023-11-19T10:27:55;5.30;1.00
10566;DHT22;5331;48.148;16.326;2023-11-19T10:30:23;5.40;1.00
10566;DHT22;5331;48.148;16.326;2023-11-19T10:33:05;5.30;1.00
10566;DHT22;5331;48.148;16.326;2023-11-19T10:35:32;5.40;1.00
10566;DHT22;5331;48.148;16.326;2023-11-19T10:38:00;5.40;1.00
10566;DHT22;5331;48.148;16.326;2023-11-19T10:40:39;5.40;1.00
10566;DHT22;5331;48.148;16.326;2023-11-19T10:58:35;5.90;1.00
10566;DHT22;5331;48.148;16.326;2023-11-19T11:01:07;5.70;1.00
10566;DHT22;5331;48.148;16.326;2023-11-19T11:03:39;5.60;1.00
10566;DHT22;5331;48.148;16.326;2023-11-19T11:06:06;5.70;1.00
10566;DHT22;5331;48.148;16.326;2023-11-19T11:08:36;5.70;1.00
10566;DHT22;5331;48.148;16.326;2023-11-19T11:11:03;5.60;1.00
10566;DHT22;5331;48.148;16.326;2023-11-19T11:13:32;5.70;1.00
10566;DHT22;5331;48.148;16.326;2023-11-19T11:31:39;6.10;1.00
10566;DHT22;5331;48.148;16.326;2023-11-19T11:34:24;6.00;1.00
10566;DHT22;5331;48.148;16.326;2023-11-19T11:36:58;5.90;1.00
10566;DHT22;5331;48.148;16.326;2023-11-19T11:39:29;5.90;1.00
10566;DHT22;5331;48.148;16.326;2023-11-19T11:44:58;6.00;1.00
10566;DHT22;5331;48.148;16.326;2023-11-19T12:01:00;5.90;1.00
10566;DHT22;5331;48.148;16.326;2023-11-19T12:03:41;5.90;1.00
10566;DHT22;5331;48.148;16.326;2023-11-19T12:06:08;5.90;1.00
10566;DHT22;5331;48.148;16.326;2023-11-19T12:08:34;6.00;1.00
10566;DHT22;5331;48.148;16.326;2023-11-19T12:11:54;6.00;1.00
10566;DHT22;5331;48.148;16.326;2023-11-19T12:15:30;6.10;1.00
10566;DHT22;5331;48.148;16.326;2023-11-19T12:18:19;6.10;1.00
10566;DHT22;5331;48.148;16.326;2023-11-19T12:21:27;6.00;1.00
10566;DHT22;5331;48.148;16.326;2023-11-19T12:24:12;6.10;1.00
10566;DHT22;5331;48.148;16.326;2023-11-19T12:48:53;6.20;1.00
10566;DHT22;5331;48.148;16.326;2023-11-19T12:52:01;6.30;1.00
10566;DHT22;5331;48.148;16.326;2023-11-19T12:58:28;6.10;1.00
10566;DHT22;5331;48.148;16.326;2023-11-19T13:01:15;6.40;1.00
10566;DHT22;5331;48.148;16.326;2023-11-19T13:03:48;6.30;1.00
10566;DHT22;5331;48.148;16.326;2023-11-19T13:06:18;6.20;1.00
10566;DHT22;5331;48.148;16.326;2023-11-19T13:24:01;6.50;1.00
10566;DHT22;5331;48.148;16.326;2023-11-19T13:26:28;6.40;1.00
10566;DHT22;5331;48.148;16.326;2023-11-19T13:31:21;6.40;1.00
10566;DHT22;5331;48.148;16.326;2023-11-19T13:33:47;6.40;1.00
10566;DHT22;5331;48.148;16.326;2023-11-19T13:36:14;6.40;1.00
10566;DHT22;5331;48.148;16.326;2023-11-19T13:38:40;6.50;1.00
10566;DHT22;5331;48.148;16.326;2023-11-19T13:56:29;6.50;1.00
10566;DHT22;5331;48.148;16.326;2023-11-19T13:58:55;6.70;1.00
10566;DHT22;5331;48.148;16.326;2023-11-19T14:01:21;6.70;1.00
10566;DHT22;5331;48.148;16.326;2023-11-19T14:03:48;6.70;1.00
10566;DHT22;5331;48.148;16.326;2023-11-19T14:06:14;6.60;1.00
10566;DHT22;5331;48.148;16.326;2023-11-19T14:08:41;6.60;1.00
10566;DHT22;5331;48.148;16.326;2023-11-19T14:11:07;6.60;1.00
10566;DHT22;5331;48.148;16.326;2023-11-19T14:31:04;6.50;1.00
10566;DHT22;5331;48.148;16.326;2023-11-19T14:33:32;6.50;1.00
10566;DHT22;5331;48.148;16.326;2023-11-19T14:36:00;6.50;1.00
10566;DHT22;5331;48.148;16.326;2023-11-19T14:38:27;6.50;1.00
10566;DHT22;5331;48.148;16.326;2023-11-19T14:40:54;6.50;1.00
10566;DHT22;5331;48.148;16.326;2023-11-19T14:43:21;6.40;1.00
10566;DHT22;5331;48.148;16.326;2023-11-19T14:45:48;6.50;1.00
10566;DHT22;5331;48.148;16.326;2023-11-19T15:03:44;6.50;1.00
10566;DHT22;5331;48.148;16.326;2023-11-19T15:06:13;6.40;1.00
10566;DHT22;5331;48.148;16.326;2023-11-19T15:08:39;6.40;1.00
10566;DHT22;5331;48.148;16.326;2023-11-19T15:11:06;6.40;1.00
10566;DHT22;5331;48.148;16.326;2023-11-19T15:13:32;6.40;1.00
10566;DHT22;5331;48.148;16.326;2023-11-19T15:15:59;6.30;1.00
10566;DHT22;5331;48.148;16.326;2023-11-19T15:18:25;6.30;1.00
10566;DHT22;5331;48.148;16.326;2023-11-19T15:38:07;6.40;1.00
10566;DHT22;5331;48.148;16.326;2023-11-19T15:40:35;6.30;1.00
10566;DHT22;5331;48.148;16.326;2023-11-19T15:43:01;6.20;1.00
10566;DHT22;5331;48.148;16.326;2023-11-19T15:45:28;6.20;1.00
10566;DHT22;5331;48.148;16.326;2023-11-19T15:47:54;6.10;1.00
10566;DHT22;5331;48.148;16.326;2023-11-19T15:50:20;6.10;1.00
10566;DHT22;5331;48.148;16.326;2023-11-19T15:52:46;6.00;1.00
10566;DHT22;5331;48.148;16.326;2023-11-19T16:10:40;5.70;1.00
10566;DHT22;5331;48.148;16.326;2023-11-19T16:13:08;5.70;1.00
10566;DHT22;5331;48.148;16.326;2023-11-19T16:15:34;5.60;1.00
10566;DHT22;5331;48.148;16.326;2023-11-19T16:18:01;5.60;1.00
10566;DHT22;5331;48.148;16.326;2023-11-19T16:20:27;5.60;1.00
10566;DHT22;5331;48.148;16.326;2023-11-19T16:22:53;5.50;1.00
10566;DHT22;5331;48.148;16.326;2023-11-19T16:25:19;5.40;1.00
10566;DHT22;5331;48.148;16.326;2023-11-19T16:27:46;5.30;1.00
10566;DHT22;5331;48.148;16.326;2023-11-19T16:45:37;5.20;1.00
10566;DHT22;5331;48.148;16.326;2023-11-19T16:48:03;5.00;1.00
10566;DHT22;5331;48.148;16.326;2023-11-19T16:50:30;4.90;1.00
10566;DHT22;5331;48.148;16.326;2023-11-19T16:52:56;5.00;1.00
10566;DHT22;5331;48.148;16.326;2023-11-19T16:55:22;4.90;1.00
10566;DHT22;5331;48.148;16.326;2023-11-19T16:57:51;4.90;1.00
10566;DHT22;5331;48.148;16.326;2023-11-19T17:00:17;4.80;1.00
10566;DHT22;5331;48.148;16.326;2023-11-19T17:18:11;4.80;1.00
10566;DHT22;5331;48.148;16.326;2023-11-19T17:20:37;4.70;1.00
10566;DHT22;5331;48.148;16.326;2023-11-19T17:23:04;4.70;1.00
10566;DHT22;5331;48.148;16.326;2023-11-19T17:25:30;4.60;1.00
10566;DHT22;5331;48.148;16.326;2023-11-19T17:27:57;4.60;1.00
10566;DHT22;5331;48.148;16.326;2023-11-19T17:30:23;4.70;1.00
10566;DHT22;5331;48.148;16.326;2023-11-19T17:32:49;4.80;1.00
10566;DHT22;5331;48.148;16.326;2023-11-19T17:53:04;4.70;1.00
10566;DHT22;5331;48.148;16.326;2023-11-19T17:55:31;4.50;1.00
10566;DHT22;5331;48.148;16.326;2023-11-19T17:57:57;4.50;1.00
10566;DHT22;5331;48.148;16.326;2023-11-19T18:00:24;4.40;1.00
10566;DHT22;5331;48.148;16.326;2023-11-19T18:02:50;4.30;1.00
10566;DHT22;5331;48.148;16.326;2023-11-19T18:05:18;4.20;1.00
10566;DHT22;5331;48.148;16.326;2023-11-19T18:07:46;4.20;1.00
10566;DHT22;5331;48.148;16.326;2023-11-19T18:25:39;4.70;1.00
10566;DHT22;5331;48.148;16.326;2023-11-19T18:28:05;4.50;1.00
10566;DHT22;5331;48.148;16.326;2023-11-19T18:30:33;4.40;1.00
10566;DHT22;5331;48.148;16.326;2023-11-19T18:33:01;4.40;1.00
10566;DHT22;5331;48.148;16.326;2023-11-19T18:35:30;4.40;1.00
10566;DHT22;5331;48.148;16.326;2023-11-19T18:37:58;4.60;1.00
10566;DHT22;5331;48.148;16.326;2023-11-19T18:40:26;4.70;1.00
10566;DHT22;5331;48.148;16.326;2023-11-19T18:58:25;4.50;1.00
10566;DHT22;5331;48.148;16.326;2023-11-19T19:00:53;4.60;1.00
10566;DHT22;5331;48.148;16.326;2023-11-19T19:03:21;4.60;1.00
10566;DHT22;5331;48.148;16.326;2023-11-19T19:05:51;4.60;1.00
10566;DHT22;5331;48.148;16.326;2023-11-19T19:08:19;4.60;1.00
10566;DHT22;5331;48.148;16.326;2023-11-19T19:10:48;4.60;1.00
10566;DHT22;5331;48.148;16.326;2023-11-19T19:13:15;4.60;1.00
10566;DHT22;5331;48.148;16.326;2023-11-19T19:31:12;4.90;1.00
10566;DHT22;5331;48.148;16.326;2023-11-19T19:33:42;4.90;1.00
10566;DHT22;5331;48.148;16.326;2023-11-19T19:36:09;4.80;1.00
10566;DHT22;5331;48.148;16.326;2023-11-19T19:38:36;4.90;1.00
10566;DHT22;5331;48.148;16.326;2023-11-19T19:41:02;5.00;1.00
10566;DHT22;5331;48.148;16.326;2023-11-19T19:43:30;5.10;1.00
10566;DHT22;5331;48.148;16.326;2023-11-19T19:45:56;5.00;1.00
10566;DHT22;5331;48.148;16.326;2023-11-19T20:03:50;5.10;1.00
10566;DHT22;5331;48.148;16.326;2023-11-19T20:06:17;5.10;1.00
10566;DHT22;5331;48.148;16.326;2023-11-19T20:08:47;5.10;1.00
10566;DHT22;5331;48.148;16.326;2023-11-19T20:11:14;5.00;1.00
10566;DHT22;5331;48.148;16.326;2023-11-19T20:13:41;5.00;1.00
10566;DHT22;5331;48.148;16.326;2023-11-19T20:16:09;4.90;1.00
10566;DHT22;5331;48.148;16.326;2023-11-19T20:18:35;4.90;1.00
10566;DHT22;5331;48.148;16.326;2023-11-19T20:36:27;5.20;1.00
10566;DHT22;5331;48.148;16.326;2023-11-19T20:38:54;5.10;1.00
10566;DHT22;5331;48.148;16.326;2023-11-19T20:41:21;5.00;1.00
10566;DHT22;5331;48.148;16.326;2023-11-19T20:43:47;4.90;1.00
10566;DHT22;5331;48.148;16.326;2023-11-19T20:46:13;4.90;1.00
10566;DHT22;5331;48.148;16.326;2023-11-19T20:48:39;4.80;1.00
10566;DHT22;5331;48.148;16.326;2023-11-19T20:51:06;4.80;1.00
10566;DHT22;5331;48.148;16.326;2023-11-19T21:09:03;4.60;1.00
10566;DHT22;5331;48.148;16.326;2023-11-19T21:11:29;4.60;1.00
10566;DHT22;5331;48.148;16.326;2023-11-19T21:13:55;4.70;1.00
10566;DHT22;5331;48.148;16.326;2023-11-19T21:16:22;4.60;1.00
10566;DHT22;5331;48.148;16.326;2023-11-19T21:18:50;4.60;1.00
10566;DHT22;5331;48.148;16.326;2023-11-19T21:21:22;4.70;1.00
10566;DHT22;5331;48.148;16.326;2023-11-19T21:38:54;5.00;1.00
10566;DHT22;5331;48.148;16.326;2023-11-19T21:41:20;5.00;1.00
10566;DHT22;5331;48.148;16.326;2023-11-19T21:43:47;5.00;1.00
10566;DHT22;5331;48.148;16.326;2023-11-19T21:46:13;4.90;1.00
10566;DHT22;5331;48.148;16.326;2023-11-19T21:48:42;5.00;1.00
10566;DHT22;5331;48.148;16.326;2023-11-19T21:51:09;5.00;1.00
10566;DHT22;5331;48.148;16.326;2023-11-19T22:09:02;5.00;1.00
10566;DHT22;5331;48.148;16.326;2023-11-19T22:11:31;5.00;1.00
10566;DHT22;5331;48.148;16.326;2023-11-19T22:13:58;5.00;1.00
10566;DHT22;5331;48.148;16.326;2023-11-19T22:16:26;5.00;1.00
10566;DHT22;5331;48.148;16.326;2023-11-19T22:18:53;5.00;1.00
10566;DHT22;5331;48.148;16.326;2023-11-19T22:21:23;5.00;1.00
10566;DHT22;5331;48.148;16.326;2023-11-19T22:38:41;5.80;1.00
10566;DHT22;5331;48.148;16.326;2023-11-19T22:41:09;5.90;1.00
10566;DHT22;5331;48.148;16.326;2023-11-19T22:43:36;6.00;1.00
10566;DHT22;5331;48.148;16.326;2023-11-19T22:46:04;6.10;1.00
10566;DHT22;5331;48.148;16.326;2023-11-19T22:48:33;6.30;1.00
10566;DHT22;5331;48.148;16.326;2023-11-19T22:51:04;6.50;1.00
10566;DHT22;5331;48.148;16.326;2023-11-19T23:06:47;8.30;1.00
10566;DHT22;5331;48.148;16.326;2023-11-19T23:09:14;8.50;1.00
10566;DHT22;5331;48.148;16.326;2023-11-19T23:11:40;8.50;1.00
10566;DHT22;5331;48.148;16.326;2023-11-19T23:14:07;8.50;1.00
10566;DHT22;5331;48.148;16.326;2023-11-19T23:16:36;8.60;1.00
10566;DHT22;5331;48.148;16.326;2023-11-19T23:19:03;8.50;1.00
10566;DHT22;5331;48.148;16.326;2023-11-19T23:21:29;8.50;1.00
10566;DHT22;5331;48.148;16.326;2023-11-19T23:39:20;8.70;1.00
10566;DHT22;5331;48.148;16.326;2023-11-19T23:41:46;8.90;1.00
10566;DHT22;5331;48.148;16.326;2023-11-19T23:44:12;8.90;1.00
10566;DHT22;5331;48.148;16.326;2023-11-19T23:46:38;8.70;1.00
10566;DHT22;5331;48.148;16.326;2023-11-19T23:49:04;8.70;1.00
10566;DHT22;5331;48.148;16.326;2023-11-19T23:51:30;8.70;1.00
10566;DHT22;5331;48.148;16.326;2023-11-19T23:53:57;8.60;1.00
